createdAt,value
2018-12-11T00:00:20.037Z,99.99
2018-12-11T00:01:20.210Z,99.99
2018-12-11T00:02:20.403Z,99.99
2018-12-11T00:03:20.548Z,99.99
2018-12-11T00:04:20.719Z,99.99
2018-12-11T00:05:20.890Z,99.99
2018-12-11T00:06:21.065Z,99.99
2018-12-11T00:07:21.236Z,99.99
2018-12-11T00:08:21.400Z,99.99
2018-12-11T00:09:21.569Z,99.99
2018-12-11T00:10:21.745Z,99.99
2018-12-11T00:11:21.917Z,99.99
2018-12-11T00:12:22.086Z,99.99
2018-12-11T00:13:22.257Z,99.99
2018-12-11T00:14:22.431Z,99.99
2018-12-11T00:15:22.601Z,99.99
2018-12-11T00:16:22.775Z,99.99
2018-12-11T00:17:22.949Z,99.99
2018-12-11T00:18:23.119Z,99.99
2018-12-11T00:19:23.294Z,99.99
2018-12-11T00:20:23.464Z,99.99
2018-12-11T00:21:23.636Z,99.99
2018-12-11T00:22:23.815Z,99.99
2018-12-11T00:23:23.985Z,99.99
2018-12-11T00:24:24.150Z,99.99
2018-12-11T00:25:24.324Z,99.99
2018-12-11T00:26:24.493Z,99.99
2018-12-11T00:27:24.664Z,99.99
2018-12-11T00:28:24.834Z,99.99
2018-12-11T00:29:25.011Z,99.99
2018-12-11T00:30:25.182Z,99.99
2018-12-11T00:31:25.353Z,99.99
2018-12-11T00:32:25.527Z,99.99
2018-12-11T00:33:25.698Z,99.99
2018-12-11T00:34:25.870Z,99.99
2018-12-11T00:35:26.039Z,99.99
2018-12-11T00:36:26.210Z,99.99
2018-12-11T00:37:26.381Z,99.99
2018-12-11T00:38:26.551Z,99.99
2018-12-11T00:39:26.724Z,99.99
2018-12-11T00:40:26.904Z,99.99
2018-12-11T00:41:27.067Z,99.99
2018-12-11T00:42:27.238Z,99.99
2018-12-11T00:43:27.416Z,99.99
2018-12-11T00:44:27.580Z,99.99
2018-12-11T00:45:27.756Z,99.99
2018-12-11T00:46:27.921Z,99.99
2018-12-11T00:47:28.092Z,99.99
2018-12-11T00:48:28.267Z,99.99
2018-12-11T00:49:28.435Z,99.99
2018-12-11T00:50:28.607Z,99.99
2018-12-11T00:51:28.775Z,99.99
2018-12-11T00:52:28.937Z,99.99
2018-12-11T00:53:29.124Z,99.99
2018-12-11T00:54:29.286Z,99.99
2018-12-11T00:55:29.463Z,99.99
2018-12-11T00:56:29.628Z,99.99
2018-12-11T00:57:29.813Z,99.99
2018-12-11T00:58:29.977Z,99.99
2018-12-11T00:59:30.143Z,99.99
2018-12-11T01:00:30.318Z,99.99
2018-12-11T01:01:30.492Z,99.99
2018-12-11T01:02:30.655Z,99.99
2018-12-11T01:03:30.827Z,99.99
2018-12-11T01:04:30.997Z,99.99
2018-12-11T01:07:31.508Z,99.99
2018-12-11T01:08:31.684Z,99.99
2018-12-11T01:09:31.857Z,99.99
2018-12-11T01:10:32.033Z,99.99
2018-12-11T01:11:32.193Z,99.99
2018-12-11T01:12:32.364Z,99.99
2018-12-11T01:13:32.537Z,99.99
2018-12-11T01:14:32.718Z,99.99
2018-12-11T01:15:32.882Z,99.99
2018-12-11T01:16:33.072Z,99.99
2018-12-11T01:17:33.229Z,99.99
2018-12-11T01:18:33.405Z,99.99
2018-12-11T01:19:33.580Z,99.99
2018-12-11T01:20:33.741Z,99.99
2018-12-11T01:21:33.910Z,99.99
2018-12-11T01:22:34.083Z,99.99
2018-12-11T01:24:34.420Z,99.99
2018-12-11T01:25:34.592Z,99.99
2018-12-11T01:26:34.770Z,99.99
2018-12-11T01:27:34.946Z,99.99
2018-12-11T01:28:35.109Z,99.99
2018-12-11T01:29:35.284Z,99.99
2018-12-11T01:30:35.454Z,99.99
2018-12-11T01:31:35.622Z,99.99
2018-12-11T01:32:35.790Z,99.99
2018-12-11T01:33:35.959Z,99.99
2018-12-11T01:34:36.133Z,99.99
2018-12-11T01:35:36.306Z,99.99
2018-12-11T01:36:36.480Z,99.99
2018-12-11T01:37:36.650Z,99.99
2018-12-11T01:38:36.821Z,99.99
2018-12-11T01:39:37.001Z,99.99
2018-12-11T01:40:37.164Z,99.99
2018-12-11T01:41:37.334Z,99.99
2018-12-11T01:42:37.508Z,99.99
2018-12-11T01:43:37.680Z,99.99
2018-12-11T01:44:37.849Z,99.99
2018-12-11T01:45:38.021Z,99.99
2018-12-11T01:46:38.442Z,99.99
2018-12-11T01:47:38.365Z,99.99
2018-12-11T01:48:38.546Z,99.99
2018-12-11T01:49:38.704Z,99.99
2018-12-11T01:50:38.877Z,99.99
2018-12-11T01:51:39.047Z,99.99
2018-12-11T01:52:39.228Z,99.99
2018-12-11T01:53:39.395Z,99.99
2018-12-11T01:54:39.564Z,99.99
2018-12-11T01:55:39.739Z,99.99
2018-12-11T01:56:39.905Z,99.99
2018-12-11T01:57:40.078Z,99.99
2018-12-11T01:58:40.251Z,99.99
2018-12-11T01:59:40.424Z,99.99
2018-12-11T02:00:40.604Z,99.99
2018-12-11T02:01:40.775Z,99.99
2018-12-11T02:02:40.936Z,99.99
2018-12-11T02:03:41.112Z,99.99
2018-12-11T02:04:41.281Z,99.99
2018-12-11T02:05:41.454Z,99.99
2018-12-11T02:06:41.626Z,99.99
2018-12-11T02:07:41.803Z,99.99
2018-12-11T02:08:41.967Z,99.99
2018-12-11T02:09:42.142Z,99.99
2018-12-11T02:10:42.313Z,99.99
2018-12-11T02:11:42.501Z,99.99
2018-12-11T02:12:42.685Z,99.99
2018-12-11T02:13:42.818Z,99.99
2018-12-11T02:14:42.990Z,99.99
2018-12-11T02:15:43.159Z,99.99
2018-12-11T02:16:43.333Z,99.99
2018-12-11T02:17:43.503Z,99.99
2018-12-11T02:18:43.682Z,99.99
2018-12-11T02:19:43.856Z,99.99
2018-12-11T02:20:44.022Z,99.99
2018-12-11T02:21:44.195Z,99.99
2018-12-11T02:22:44.363Z,99.99
2018-12-11T02:23:44.537Z,99.99
2018-12-11T02:24:44.710Z,99.99
2018-12-11T02:25:44.898Z,99.99
2018-12-11T02:26:45.053Z,99.99
2018-12-11T02:27:45.231Z,99.99
2018-12-11T02:28:45.404Z,99.99
2018-12-11T02:29:45.571Z,99.99
2018-12-11T02:30:45.751Z,99.99
2018-12-11T02:31:45.915Z,99.99
2018-12-11T02:32:46.090Z,99.99
2018-12-11T02:33:46.263Z,99.99
2018-12-11T02:34:46.433Z,99.99
2018-12-11T02:35:46.601Z,99.99
2018-12-11T02:36:46.788Z,99.99
2018-12-11T02:37:46.952Z,99.99
2018-12-11T02:38:47.122Z,99.99
2018-12-11T02:39:47.294Z,99.99
2018-12-11T02:40:47.465Z,99.99
2018-12-11T02:41:47.635Z,99.99
2018-12-11T02:42:47.809Z,99.99
2018-12-11T02:43:47.990Z,99.99
2018-12-11T02:44:48.158Z,99.99
2018-12-11T02:45:48.319Z,99.99
2018-12-11T02:46:48.496Z,99.99
2018-12-11T02:47:48.663Z,99.99
2018-12-11T02:48:48.838Z,99.99
2018-12-11T02:49:49.007Z,99.99
2018-12-11T02:50:49.181Z,99.99
2018-12-11T02:51:49.354Z,99.99
2018-12-11T02:52:49.525Z,99.99
2018-12-11T02:53:49.693Z,99.99
2018-12-11T02:54:49.866Z,99.99
2018-12-11T02:55:50.042Z,99.99
2018-12-11T02:56:50.214Z,99.99
2018-12-11T02:57:50.384Z,99.99
2018-12-11T02:58:50.555Z,99.99
2018-12-11T02:59:50.733Z,99.99
2018-12-11T03:00:50.900Z,99.99
2018-12-11T03:01:51.072Z,99.99
2018-12-11T03:02:51.243Z,99.99
2018-12-11T03:03:51.416Z,99.99
2018-12-11T03:04:51.587Z,99.99
2018-12-11T03:05:51.754Z,99.99
2018-12-11T03:06:51.930Z,99.99
2018-12-11T03:07:52.106Z,99.99
2018-12-11T03:08:52.274Z,99.99
2018-12-11T03:09:52.440Z,99.99
2018-12-11T03:10:52.615Z,99.99
2018-12-11T03:11:52.788Z,99.99
2018-12-11T03:12:52.957Z,99.99
2018-12-11T03:13:53.149Z,99.99
2018-12-11T03:14:53.307Z,99.99
2018-12-11T03:15:53.479Z,99.99
2018-12-11T03:16:53.653Z,99.99
2018-12-11T03:17:53.842Z,99.99
2018-12-11T03:18:53.997Z,99.99
2018-12-11T03:19:54.168Z,99.99
2018-12-11T03:20:54.351Z,99.99
2018-12-11T03:21:54.505Z,99.99
2018-12-11T03:22:54.683Z,99.99
2018-12-11T03:23:54.850Z,99.99
2018-12-11T03:24:55.027Z,99.99
2018-12-11T03:25:55.188Z,99.99
2018-12-11T03:26:55.359Z,99.99
2018-12-11T03:27:55.526Z,99.99
2018-12-11T03:28:55.711Z,99.99
2018-12-11T03:29:55.874Z,99.99
2018-12-11T03:30:56.057Z,99.99
2018-12-11T03:31:56.234Z,99.99
2018-12-11T03:32:56.406Z,99.99
2018-12-11T03:33:56.555Z,99.99
2018-12-11T03:34:56.733Z,99.99
2018-12-11T03:35:56.907Z,99.99
2018-12-11T03:36:57.066Z,99.99
2018-12-11T03:37:57.236Z,99.99
2018-12-11T03:38:57.407Z,99.99
2018-12-11T03:39:57.598Z,99.99
2018-12-11T03:40:57.752Z,99.99
2018-12-11T03:41:57.914Z,99.99
2018-12-11T03:42:58.089Z,99.99
2018-12-11T03:43:58.260Z,99.99
2018-12-11T03:44:58.435Z,99.99
2018-12-11T03:45:58.602Z,99.99
2018-12-11T03:46:58.771Z,99.99
2018-12-11T03:47:58.943Z,99.99
2018-12-11T03:48:59.125Z,99.99
2018-12-11T03:49:59.291Z,99.99
2018-12-11T03:50:59.457Z,99.99
2018-12-11T03:51:59.630Z,99.99
2018-12-11T03:52:59.796Z,99.99
2018-12-11T03:53:59.973Z,99.99
2018-12-11T03:55:00.137Z,99.99
2018-12-11T03:56:00.313Z,99.99
2018-12-11T03:57:00.485Z,99.99
2018-12-11T03:58:00.655Z,99.99
2018-12-11T03:59:00.827Z,99.99
2018-12-11T04:00:00.998Z,99.99
2018-12-11T04:01:01.172Z,99.99
2018-12-11T04:02:01.351Z,99.99
2018-12-11T04:03:01.512Z,99.99
2018-12-11T04:04:01.690Z,99.99
2018-12-11T04:05:01.858Z,99.99
2018-12-11T04:06:02.028Z,99.99
2018-12-11T04:07:02.208Z,99.99
2018-12-11T04:08:02.369Z,99.99
2018-12-11T04:09:02.544Z,99.99
2018-12-11T04:10:02.710Z,99.99
2018-12-11T04:11:02.882Z,99.99
2018-12-11T04:12:03.052Z,99.99
2018-12-11T04:13:03.223Z,99.99
2018-12-11T04:14:03.396Z,99.99
2018-12-11T04:15:03.581Z,99.99
2018-12-11T04:16:03.744Z,99.99
2018-12-11T04:17:03.906Z,99.99
2018-12-11T04:18:04.079Z,99.99
2018-12-11T04:19:04.248Z,99.99
2018-12-11T04:20:04.421Z,99.99
2018-12-11T04:21:04.599Z,99.99
2018-12-11T04:22:04.773Z,99.99
2018-12-11T04:23:04.960Z,99.99
2018-12-11T04:24:05.125Z,99.99
2018-12-11T04:25:05.284Z,99.99
2018-12-11T04:26:05.455Z,99.99
2018-12-11T04:27:05.627Z,99.99
2018-12-11T04:28:05.804Z,99.99
2018-12-11T04:29:05.992Z,99.99
2018-12-11T04:30:06.143Z,99.99
2018-12-11T04:31:06.311Z,99.99
2018-12-11T04:32:06.483Z,99.99
2018-12-11T04:33:06.656Z,99.99
2018-12-11T04:34:06.829Z,99.99
2018-12-11T04:35:06.996Z,99.99
2018-12-11T04:36:07.172Z,99.99
2018-12-11T04:37:07.339Z,99.99
2018-12-11T04:38:07.516Z,99.99
2018-12-11T04:39:07.688Z,99.99
2018-12-11T04:40:07.852Z,99.99
2018-12-11T04:41:08.032Z,99.99
2018-12-11T04:42:08.194Z,99.99
2018-12-11T04:43:08.363Z,99.99
2018-12-11T04:44:08.551Z,99.99
2018-12-11T04:45:08.708Z,99.99
2018-12-11T04:46:08.887Z,99.99
2018-12-11T04:47:09.063Z,99.99
2018-12-11T04:48:09.220Z,99.99
2018-12-11T04:49:09.406Z,99.99
2018-12-11T04:50:09.580Z,99.99
2018-12-11T04:51:09.744Z,99.99
2018-12-11T04:52:09.926Z,99.99
2018-12-11T04:53:10.097Z,99.99
2018-12-11T04:54:10.282Z,99.99
2018-12-11T04:55:10.447Z,99.99
2018-12-11T04:56:10.629Z,99.99
2018-12-11T04:57:10.800Z,99.87
2018-12-11T04:58:10.968Z,99.99
2018-12-11T04:59:11.135Z,99.99
2018-12-11T05:00:11.304Z,99.96
2018-12-11T05:01:11.474Z,99.58
2018-12-11T05:02:11.647Z,99.99
2018-12-11T05:03:11.829Z,99.99
2018-12-11T05:04:11.995Z,99.99
2018-12-11T05:05:12.173Z,99.99
2018-12-11T05:06:12.341Z,99.99
2018-12-11T05:07:12.515Z,99.99
2018-12-11T05:08:12.676Z,99.99
2018-12-11T05:09:12.844Z,99.99
2018-12-11T05:10:13.015Z,99.99
2018-12-11T05:11:13.189Z,99.99
2018-12-11T05:12:13.361Z,99.99
2018-12-11T05:13:13.540Z,99.99
2018-12-11T05:14:13.703Z,99.99
2018-12-11T05:15:13.876Z,99.99
2018-12-11T05:16:14.049Z,99.99
2018-12-11T05:17:14.222Z,99.99
2018-12-11T05:18:14.392Z,99.99
2018-12-11T05:19:14.564Z,99.99
2018-12-11T05:20:14.739Z,99.99
2018-12-11T05:21:14.909Z,99.99
2018-12-11T05:22:15.085Z,99.77
2018-12-11T05:23:15.309Z,99.68
2018-12-11T05:24:15.429Z,99.49
2018-12-11T05:25:15.598Z,99.39
2018-12-11T05:26:15.772Z,99.87
2018-12-11T05:27:15.943Z,99.68
2018-12-11T05:28:16.116Z,98.92
2018-12-11T05:29:16.291Z,99.11
2018-12-11T05:30:16.463Z,98.63
2018-12-11T05:31:16.634Z,99.26
2018-12-11T05:32:16.813Z,99.35
2018-12-11T05:33:16.980Z,99.06
2018-12-11T05:34:17.160Z,98.40
2018-12-11T05:35:17.333Z,98.68
2018-12-11T05:36:17.508Z,98.68
2018-12-11T05:37:17.676Z,98.59
2018-12-11T05:38:17.852Z,98.59
2018-12-11T05:39:18.019Z,98.11
2018-12-11T05:40:18.195Z,98.02
2018-12-11T05:41:18.366Z,98.11
2018-12-11T05:42:18.540Z,98.11
2018-12-11T05:43:18.727Z,97.83
2018-12-11T05:44:18.882Z,98.02
2018-12-11T05:45:19.055Z,97.92
2018-12-11T05:46:19.228Z,97.92
2018-12-11T05:47:19.399Z,97.26
2018-12-11T05:48:19.573Z,97.55
2018-12-11T05:49:19.755Z,97.17
2018-12-11T05:50:19.975Z,97.45
2018-12-11T05:51:20.085Z,97.36
2018-12-11T05:52:20.259Z,97.17
2018-12-11T05:53:20.436Z,96.88
2018-12-11T05:54:20.618Z,97.07
2018-12-11T05:55:20.779Z,96.69
2018-12-11T05:56:20.949Z,97.07
2018-12-11T05:57:21.121Z,97.64
2018-12-11T05:58:21.292Z,97.92
2018-12-11T05:59:21.470Z,97.92
2018-12-11T06:00:21.633Z,97.83
2018-12-11T06:01:21.808Z,98.40
2018-12-11T06:02:21.983Z,98.49
2018-12-11T06:03:22.153Z,98.78
2018-12-11T06:04:22.323Z,99.06
2018-12-11T06:05:22.504Z,99.06
2018-12-11T06:06:22.675Z,99.91
2018-12-11T06:07:22.859Z,99.54
2018-12-11T06:08:23.023Z,99.73
2018-12-11T06:09:23.199Z,99.91
2018-12-11T06:10:23.365Z,99.99
2018-12-11T06:11:23.553Z,99.99
2018-12-11T06:12:23.710Z,99.99
2018-12-11T06:13:23.869Z,99.91
2018-12-11T06:14:24.045Z,99.91
2018-12-11T06:15:24.215Z,99.99
2018-12-11T06:16:24.389Z,99.44
2018-12-11T06:17:24.565Z,99.73
2018-12-11T06:18:24.726Z,99.91
2018-12-11T06:19:24.900Z,99.44
2018-12-11T06:20:25.081Z,98.87
2018-12-11T06:21:25.251Z,99.06
2018-12-11T06:22:25.406Z,99.06
2018-12-11T06:23:25.580Z,98.02
2018-12-11T06:24:25.752Z,98.63
2018-12-11T06:25:25.923Z,99.49
2018-12-11T06:26:26.110Z,99.35
2018-12-11T06:27:26.271Z,99.11
2018-12-11T06:28:26.447Z,98.54
2018-12-11T06:29:26.615Z,98.73
2018-12-11T06:30:26.783Z,99.58
2018-12-11T06:31:26.962Z,99.87
2018-12-11T06:32:27.135Z,99.99
2018-12-11T06:33:27.316Z,99.99
2018-12-11T06:34:27.484Z,99.99
2018-12-11T06:35:27.652Z,99.99
2018-12-11T06:36:27.824Z,99.99
2018-12-11T06:37:28.000Z,99.99
2018-12-11T06:38:28.166Z,99.99
2018-12-11T06:39:28.353Z,99.99
2018-12-11T06:40:28.504Z,99.99
2018-12-11T06:41:28.671Z,99.99
2018-12-11T06:42:28.839Z,99.99
2018-12-11T06:43:29.020Z,99.99
2018-12-11T06:44:29.171Z,99.99
2018-12-11T06:45:29.352Z,99.99
2018-12-11T06:46:29.528Z,99.99
2018-12-11T06:47:29.701Z,99.99
2018-12-11T06:48:29.874Z,99.99
2018-12-11T06:49:30.041Z,99.99
2018-12-11T06:50:30.209Z,99.99
2018-12-11T06:51:30.384Z,99.99
2018-12-11T06:52:30.557Z,99.99
2018-12-11T06:53:30.742Z,99.99
2018-12-11T06:54:30.923Z,99.99
2018-12-11T06:55:31.085Z,99.99
2018-12-11T06:56:31.259Z,99.99
2018-12-11T06:57:31.433Z,99.99
2018-12-11T06:58:31.606Z,99.96
2018-12-11T06:59:31.777Z,99.99
2018-12-11T07:00:32.020Z,99.99
2018-12-11T07:01:32.119Z,99.68
2018-12-11T07:02:32.291Z,99.99
2018-12-11T07:03:32.461Z,99.68
2018-12-11T07:04:32.638Z,99.87
2018-12-11T07:05:32.824Z,99.68
2018-12-11T07:06:32.976Z,99.96
2018-12-11T07:07:33.150Z,99.99
2018-12-11T07:08:33.322Z,99.99
2018-12-11T07:09:33.499Z,99.99
2018-12-11T07:10:33.671Z,99.99
2018-12-11T07:11:33.856Z,99.99
2018-12-11T07:12:34.021Z,99.99
2018-12-11T07:13:34.187Z,99.63
2018-12-11T07:14:34.389Z,99.99
2018-12-11T07:15:34.529Z,99.82
2018-12-11T07:16:34.704Z,99.39
2018-12-11T07:17:34.881Z,99.39
2018-12-11T07:18:35.055Z,99.87
2018-12-11T07:19:35.221Z,99.58
2018-12-11T07:20:35.394Z,99.87
2018-12-11T07:21:35.564Z,99.49
2018-12-11T07:22:35.739Z,99.68
2018-12-11T07:23:35.909Z,99.96
2018-12-11T07:24:36.074Z,99.99
2018-12-11T07:25:36.250Z,99.87
2018-12-11T07:26:36.414Z,99.96
2018-12-11T07:27:36.596Z,99.96
2018-12-11T07:28:36.765Z,99.87
2018-12-11T07:29:36.946Z,99.99
2018-12-11T07:30:37.123Z,99.99
2018-12-11T07:31:37.277Z,99.49
2018-12-11T07:32:37.452Z,99.39
2018-12-11T07:33:38.190Z,99.58
2018-12-11T07:34:37.819Z,99.77
2018-12-11T07:35:38.007Z,99.87
2018-12-11T07:36:38.148Z,99.77
2018-12-11T07:37:38.319Z,99.39
2018-12-11T07:38:38.494Z,99.77
2018-12-11T07:39:38.665Z,99.58
2018-12-11T07:40:38.838Z,99.20
2018-12-11T07:41:39.010Z,99.87
2018-12-11T07:42:39.181Z,99.68
2018-12-11T07:43:39.354Z,99.99
2018-12-11T07:44:39.528Z,99.96
2018-12-11T07:45:39.695Z,99.39
2018-12-11T07:46:39.866Z,99.58
2018-12-11T07:47:40.031Z,99.20
2018-12-11T07:48:40.198Z,99.68
2018-12-11T07:49:40.376Z,99.30
2018-12-11T07:50:40.552Z,99.96
2018-12-11T07:51:40.720Z,99.73
2018-12-11T07:53:41.051Z,99.99
2018-12-11T07:54:41.233Z,99.44
2018-12-11T07:55:41.397Z,99.16
2018-12-11T07:56:41.571Z,98.44
2018-12-11T07:57:41.726Z,98.44
2018-12-11T07:58:41.897Z,99.01
2018-12-11T07:59:42.079Z,99.49
2018-12-11T08:00:42.237Z,98.92
2018-12-11T08:01:42.412Z,99.30
2018-12-11T08:02:42.585Z,99.30
2018-12-11T08:03:42.752Z,99.11
2018-12-11T08:04:42.928Z,99.30
2018-12-11T08:05:43.099Z,98.82
2018-12-11T08:06:43.272Z,99.01
2018-12-11T08:07:43.440Z,98.92
2018-12-11T08:08:43.611Z,99.58
2018-12-11T08:09:43.782Z,99.58
2018-12-11T08:10:43.956Z,99.49
2018-12-11T08:11:44.129Z,99.99
2018-12-11T08:12:44.304Z,99.99
2018-12-11T08:13:44.471Z,99.99
2018-12-11T08:14:44.637Z,99.99
2018-12-11T08:15:44.811Z,99.99
2018-12-11T08:16:44.975Z,99.87
2018-12-11T08:17:45.144Z,99.99
2018-12-11T08:18:45.319Z,99.99
2018-12-11T08:19:45.488Z,99.77
2018-12-11T08:20:45.663Z,99.99
2018-12-11T08:21:45.835Z,99.99
2018-12-11T08:22:46.006Z,99.99
2018-12-11T08:23:46.259Z,99.99
2018-12-11T08:24:46.355Z,99.99
2018-12-11T08:25:46.527Z,99.87
2018-12-11T08:26:46.701Z,99.77
2018-12-11T08:27:46.871Z,99.39
2018-12-11T08:28:47.043Z,99.68
2018-12-11T08:29:47.250Z,99.87
2018-12-11T08:30:47.423Z,99.68
2018-12-11T08:31:47.585Z,99.30
2018-12-11T08:32:47.753Z,98.92
2018-12-11T08:33:47.926Z,99.01
2018-12-11T08:34:48.096Z,99.39
2018-12-11T08:35:48.279Z,99.30
2018-12-11T08:36:48.451Z,99.01
2018-12-11T08:37:48.618Z,99.01
2018-12-11T08:38:48.799Z,98.63
2018-12-11T08:39:48.955Z,99.30
2018-12-11T08:40:49.128Z,99.49
2018-12-11T08:41:49.302Z,99.20
2018-12-11T08:42:49.470Z,98.73
2018-12-11T08:43:49.642Z,98.82
2018-12-11T08:44:51.380Z,98.35
2018-12-11T08:45:50.001Z,98.44
2018-12-11T08:46:50.162Z,98.73
2018-12-11T08:47:50.311Z,99.01
2018-12-11T08:48:50.484Z,98.63
2018-12-11T08:49:50.653Z,98.44
2018-12-11T08:50:50.823Z,98.54
2018-12-11T08:51:51.006Z,98.44
2018-12-11T08:52:51.169Z,98.16
2018-12-11T08:53:51.344Z,98.49
2018-12-11T08:54:51.515Z,98.59
2018-12-11T08:55:51.684Z,98.02
2018-12-11T08:56:51.910Z,98.21
2018-12-11T08:57:52.028Z,97.83
2018-12-11T08:58:52.199Z,98.02
2018-12-11T08:59:52.372Z,98.40
2018-12-11T09:00:52.543Z,98.21
2018-12-11T09:01:52.711Z,98.02
2018-12-11T09:02:52.895Z,98.02
2018-12-11T09:03:53.085Z,97.36
2018-12-11T09:04:53.256Z,97.64
2018-12-11T09:05:53.407Z,97.83
2018-12-11T09:06:53.567Z,97.64
2018-12-11T09:07:53.764Z,97.83
2018-12-11T09:08:53.932Z,97.26
2018-12-11T09:09:54.102Z,97.45
2018-12-11T09:10:54.277Z,97.45
2018-12-11T09:11:54.450Z,97.45
2018-12-11T09:12:54.648Z,98.21
2018-12-11T09:13:54.791Z,97.92
2018-12-11T09:14:54.965Z,98.21
2018-12-11T09:15:55.161Z,97.45
2018-12-11T09:16:55.308Z,97.55
2018-12-11T09:17:55.486Z,97.07
2018-12-11T09:18:55.646Z,97.26
2018-12-11T09:19:55.819Z,97.64
2018-12-11T09:20:55.999Z,97.83
2018-12-11T09:21:56.172Z,97.64
2018-12-11T09:22:56.350Z,97.45
2018-12-11T09:23:56.529Z,97.55
2018-12-11T09:24:56.686Z,97.92
2018-12-11T09:25:56.853Z,98.21
2018-12-11T09:26:57.030Z,98.40
2018-12-11T09:27:57.194Z,98.59
2018-12-11T09:28:57.370Z,98.97
2018-12-11T09:29:57.545Z,98.59
2018-12-11T09:30:57.713Z,98.78
2018-12-11T09:31:57.916Z,98.59
2018-12-11T09:32:58.049Z,98.59
2018-12-11T09:33:58.220Z,98.02
2018-12-11T09:34:58.399Z,98.11
2018-12-11T09:35:58.567Z,98.30
2018-12-11T09:36:58.751Z,99.16
2018-12-11T09:37:58.913Z,99.82
2018-12-11T09:38:59.193Z,99.44
2018-12-11T09:39:59.299Z,99.63
2018-12-11T09:40:59.477Z,99.99
2018-12-11T09:41:59.635Z,99.99
2018-12-11T09:42:59.812Z,99.99
2018-12-11T09:43:59.982Z,99.54
2018-12-11T09:45:00.152Z,99.82
2018-12-11T09:46:00.329Z,99.82
2018-12-11T09:47:00.504Z,99.91
2018-12-11T09:48:00.679Z,99.91
2018-12-11T09:49:00.843Z,99.99
2018-12-11T09:50:01.020Z,99.99
2018-12-11T09:51:01.192Z,99.99
2018-12-11T09:52:01.371Z,99.99
2018-12-11T09:53:01.530Z,99.99
2018-12-11T09:54:01.703Z,99.99
2018-12-11T09:55:01.882Z,99.99
2018-12-11T09:56:02.052Z,99.99
2018-12-11T09:57:02.227Z,99.99
2018-12-11T09:58:02.395Z,99.99
2018-12-11T09:59:02.562Z,99.99
2018-12-11T10:00:02.742Z,99.99
2018-12-11T10:01:02.907Z,99.82
2018-12-11T10:02:03.083Z,99.63
2018-12-11T10:03:03.268Z,99.99
2018-12-11T10:04:03.442Z,99.99
2018-12-11T10:05:03.600Z,99.99
2018-12-11T10:06:03.773Z,99.99
2018-12-11T10:07:03.953Z,99.99
2018-12-11T10:08:04.129Z,99.99
2018-12-11T10:09:04.296Z,99.99
2018-12-11T10:10:04.469Z,99.99
2018-12-11T10:11:04.631Z,99.99
2018-12-11T10:12:04.806Z,99.99
2018-12-11T10:13:04.978Z,99.99
2018-12-11T10:14:05.150Z,99.99
2018-12-11T10:15:05.330Z,99.99
2018-12-11T10:16:05.505Z,99.99
2018-12-11T10:17:05.687Z,99.99
2018-12-11T10:18:05.849Z,99.99
2018-12-11T10:19:06.022Z,99.99
2018-12-11T10:20:06.201Z,99.99
2018-12-11T10:21:06.369Z,99.99
2018-12-11T10:22:06.541Z,99.99
2018-12-11T10:23:06.719Z,99.99
2018-12-11T10:24:06.891Z,99.99
2018-12-11T10:25:07.760Z,99.99
2018-12-11T10:26:07.232Z,99.99
2018-12-11T10:27:07.403Z,99.99
2018-12-11T10:28:07.571Z,99.99
2018-12-11T10:29:07.745Z,99.99
2018-12-11T10:30:07.927Z,99.99
2018-12-11T10:31:08.092Z,99.99
2018-12-11T10:32:08.271Z,99.99
2018-12-11T10:33:08.439Z,99.99
2018-12-11T10:34:08.606Z,99.99
2018-12-11T10:35:08.792Z,99.99
2018-12-11T10:36:08.948Z,99.99
2018-12-11T10:37:09.124Z,99.99
2018-12-11T10:38:09.307Z,99.99
2018-12-11T10:39:09.460Z,99.99
2018-12-11T10:40:09.631Z,99.99
2018-12-11T10:41:09.808Z,99.99
2018-12-11T10:42:09.982Z,99.99
2018-12-11T10:43:10.150Z,99.99
2018-12-11T10:44:10.329Z,99.99
2018-12-11T10:45:10.499Z,99.99
2018-12-11T10:46:10.668Z,99.99
2018-12-11T10:47:10.871Z,99.99
2018-12-11T10:48:11.028Z,99.99
2018-12-11T10:49:11.196Z,99.99
2018-12-11T10:50:11.367Z,99.99
2018-12-11T10:51:11.537Z,99.99
2018-12-11T10:52:11.713Z,99.99
2018-12-11T10:53:11.888Z,99.99
2018-12-11T10:54:12.056Z,99.99
2018-12-11T10:55:12.223Z,99.99
2018-12-11T10:56:12.398Z,99.99
2018-12-11T10:57:12.585Z,99.99
2018-12-11T10:58:12.744Z,99.99
2018-12-11T10:59:12.917Z,99.99
2018-12-11T11:00:13.096Z,99.99
2018-12-11T11:01:13.267Z,99.99
2018-12-11T11:02:13.433Z,99.99
2018-12-11T11:03:13.604Z,99.99
2018-12-11T11:04:13.786Z,99.99
2018-12-11T11:05:13.974Z,99.99
2018-12-11T11:06:14.145Z,99.99
2018-12-11T11:07:14.313Z,99.99
2018-12-11T11:08:14.476Z,99.99
2018-12-11T11:09:14.639Z,99.99
2018-12-11T11:10:14.845Z,99.99
2018-12-11T11:11:14.991Z,99.99
2018-12-11T11:12:15.178Z,99.99
2018-12-11T11:13:15.374Z,99.99
2018-12-11T11:14:15.503Z,99.99
2018-12-11T11:15:15.699Z,99.99
2018-12-11T11:16:15.852Z,99.99
2018-12-11T11:17:16.027Z,99.99
2018-12-11T11:18:16.198Z,99.99
2018-12-11T11:19:16.377Z,99.99
2018-12-11T11:20:16.552Z,99.99
2018-12-11T11:21:16.712Z,99.99
2018-12-11T11:22:16.879Z,99.99
2018-12-11T11:23:17.057Z,99.99
2018-12-11T11:24:17.230Z,99.99
2018-12-11T11:25:17.408Z,99.99
2018-12-11T11:26:17.577Z,99.99
2018-12-11T11:27:17.731Z,99.99
2018-12-11T11:28:17.919Z,99.99
2018-12-11T11:29:18.085Z,99.99
2018-12-11T11:30:18.277Z,99.99
2018-12-11T11:31:18.429Z,99.99
2018-12-11T11:32:18.593Z,99.99
2018-12-11T11:33:18.773Z,99.99
2018-12-11T11:34:18.941Z,99.99
2018-12-11T11:35:19.123Z,99.99
2018-12-11T11:36:19.270Z,99.99
2018-12-11T11:37:19.454Z,99.99
2018-12-11T11:38:19.609Z,99.99
2018-12-11T11:39:19.781Z,99.99
2018-12-11T11:40:19.955Z,99.99
2018-12-11T11:41:20.157Z,99.99
2018-12-11T11:42:20.336Z,99.58
2018-12-11T11:43:20.507Z,99.99
2018-12-11T11:44:20.669Z,99.97
2018-12-11T11:45:20.842Z,99.99
2018-12-11T11:46:21.021Z,99.77
2018-12-11T11:47:21.183Z,99.99
2018-12-11T11:48:21.361Z,99.99
2018-12-11T11:49:21.520Z,99.99
2018-12-11T11:50:21.695Z,99.99
2018-12-11T11:51:21.870Z,99.99
2018-12-11T11:52:22.049Z,99.99
2018-12-11T11:53:22.221Z,99.99
2018-12-11T11:54:22.389Z,99.99
2018-12-11T11:55:22.560Z,99.99
2018-12-11T11:56:22.745Z,99.99
2018-12-11T11:57:22.897Z,99.40
2018-12-11T11:58:23.058Z,99.49
2018-12-11T11:59:23.236Z,99.99
2018-12-11T12:00:23.418Z,99.99
2018-12-11T12:01:23.590Z,99.77
2018-12-11T12:02:23.766Z,99.58
2018-12-11T12:03:23.936Z,99.99
2018-12-11T12:04:24.135Z,99.99
2018-12-11T12:05:24.309Z,99.99
2018-12-11T12:06:24.491Z,99.99
2018-12-11T12:07:24.660Z,99.92
2018-12-11T12:08:24.827Z,99.83
2018-12-11T12:09:25.009Z,99.99
2018-12-11T12:10:25.173Z,98.79
2018-12-11T12:11:25.347Z,98.79
2018-12-11T12:12:25.522Z,98.69
2018-12-11T12:13:25.689Z,98.79
2018-12-11T12:14:25.865Z,99.35
2018-12-11T12:15:26.038Z,99.99
2018-12-11T12:17:26.376Z,99.16
2018-12-11T12:18:26.552Z,98.69
2018-12-11T12:19:26.727Z,98.35
2018-12-11T12:20:26.901Z,98.16
2018-12-11T12:21:27.069Z,98.40
2018-12-11T12:22:27.245Z,98.59
2018-12-11T12:24:27.583Z,97.69
2018-12-11T12:25:27.755Z,98.02
2018-12-11T12:26:28.472Z,97.69
2018-12-11T12:27:28.107Z,96.79
2018-12-11T12:28:28.272Z,96.31
2018-12-11T12:29:28.445Z,96.50
2018-12-11T12:30:28.622Z,96.45
2018-12-11T12:31:28.799Z,96.60
2018-12-11T12:32:28.975Z,96.22
2018-12-11T12:33:29.151Z,95.94
2018-12-11T12:34:29.340Z,96.03
2018-12-11T12:35:29.504Z,95.75
2018-12-11T12:36:29.666Z,95.55
2018-12-11T12:37:29.857Z,95.70
2018-12-11T12:38:30.008Z,96.41
2018-12-11T12:39:30.209Z,95.94
2018-12-11T12:40:30.343Z,95.94
2018-12-11T12:41:30.525Z,95.08
2018-12-11T12:42:30.702Z,95.08
2018-12-11T12:43:30.888Z,95.08
2018-12-11T12:44:31.055Z,95.08
2018-12-11T12:45:31.229Z,94.23
2018-12-11T12:46:31.409Z,94.13
2018-12-11T12:47:31.574Z,94.03
2018-12-11T12:48:31.751Z,93.65
2018-12-11T12:49:31.925Z,93.56
2018-12-11T12:50:32.090Z,94.42
2018-12-11T12:51:32.263Z,94.32
2018-12-11T12:52:32.435Z,94.51
2018-12-11T12:53:32.622Z,93.84
2018-12-11T12:54:32.780Z,93.56
2018-12-11T12:55:32.952Z,93.84
2018-12-11T12:56:33.128Z,93.75
2018-12-11T12:57:33.299Z,93.46
2018-12-11T12:58:33.481Z,93.37
2018-12-11T12:59:33.644Z,93.08
2018-12-11T13:00:33.824Z,92.90